Time;durP1;ratioP1;P1;durP2;ratioP2;P2;SDS_P1;SDS_P2;PMS_P1;PMS_P2;Temp;Humidity;BMP_temperature;BMP_pressure;BME280_temperature;BME280_humidity;BME280_pressure;Samples;Min_cycle;Max_cycle;Signal;HPM_P1;HPM_P2
2021/12/14 00:01:21;;;;;;;12.20;8.40;;;;;;;3.18;100.00;-23904.84;5051162;28;20265;-70
2021/12/14 00:03:50;;;;;;;12.57;8.40;;;;;;;3.13;100.00;-23903.56;5052788;28;20545;-71
2021/12/14 00:06:19;;;;;;;12.87;8.57;;;;;;;2.96;100.00;-23898.88;5052742;28;20178;-70
2021/12/14 00:08:54;;;;;;;11.73;8.20;;;;;;;2.75;100.00;-23892.72;5052633;28;20198;-71
2021/12/14 00:17:07;;;;;;;10.90;8.17;;;;;;;2.98;100.00;-23899.28;5050885;28;20177;-69
2021/12/14 00:19:33;;;;;;;10.23;7.53;;;;;;;3.09;100.00;-23902.44;5052783;28;20338;-69
2021/12/14 00:22:06;;;;;;;10.63;7.60;;;;;;;3.23;100.00;-23906.28;5052468;28;20213;-69
2021/12/14 00:24:34;;;;;;;10.17;7.27;;;;;;;3.21;100.00;-23905.72;5052427;28;20204;-70
2021/12/14 00:27:05;;;;;;;9.27;6.70;;;;;;;3.09;100.00;-23902.44;5052590;28;20171;-70
2021/12/14 00:29:40;;;;;;;9.47;6.97;;;;;;;2.78;100.00;-23893.59;5051587;28;20175;-69
2021/12/14 00:32:17;;;;;;;10.57;7.43;;;;;;;3.14;100.00;-23903.84;5052180;28;20178;-70
2021/12/14 00:34:43;;;;;;;10.03;7.10;;;;;;;2.96;100.00;-23898.72;5032491;28;20172;-69
2021/12/14 00:37:15;;;;;;;9.57;7.03;;;;;;;2.57;100.00;-23887.88;5037773;28;20174;-70
2021/12/14 00:39:41;;;;;;;11.00;7.40;;;;;;;2.58;100.00;-23888.03;5052385;28;20174;-70
2021/12/14 00:42:07;;;;;;;9.27;7.07;;;;;;;2.94;100.00;-23898.16;5052159;28;20214;-70
2021/12/14 00:44:33;;;;;;;9.47;6.33;;;;;;;2.92;100.00;-23897.72;5052253;28;20545;-70
2021/12/14 00:47:00;;;;;;;9.27;7.00;;;;;;;2.59;100.00;-23888.44;5052690;28;20175;-70
2021/12/14 00:49:25;;;;;;;9.23;6.80;;;;;;;2.94;100.00;-23898.16;5051033;28;20206;-70
2021/12/14 00:51:51;;;;;;;9.73;6.40;;;;;;;3.02;100.00;-23900.44;5051105;28;20550;-70
2021/12/14 00:54:17;;;;;;;8.80;6.50;;;;;;;2.84;100.00;-23895.44;5051781;28;20254;-70
2021/12/14 00:56:45;;;;;;;8.60;6.17;;;;;;;2.62;100.00;-23889.16;5051865;28;20182;-71
2021/12/14 00:59:13;;;;;;;8.60;6.27;;;;;;;2.32;100.00;-23880.75;5039798;28;20274;-70
2021/12/14 01:01:46;;;;;;;8.40;5.90;;;;;;;2.30;100.00;-23880.16;5049846;28;20514;-69
2021/12/14 01:04:19;;;;;;;8.70;6.07;;;;;;;2.59;100.00;-23888.31;5051152;28;20159;-69
2021/12/14 01:06:46;;;;;;;8.77;6.20;;;;;;;2.23;100.00;-23878.31;5050439;28;20178;-69
2021/12/14 01:09:15;;;;;;;8.77;6.20;;;;;;;1.89;100.00;-23868.47;5051567;28;20252;-70
2021/12/14 01:11:46;;;;;;;7.83;5.67;;;;;;;2.35;100.00;-23881.47;5052496;28;20209;-70
2021/12/14 01:14:29;;;;;;;9.63;6.40;;;;;;;2.45;100.00;-23884.44;5052161;28;20201;-70
2021/12/14 01:17:26;;;;;;;8.17;5.73;;;;;;;2.41;100.00;-23883.31;5050159;28;20178;-70
2021/12/14 01:19:56;;;;;;;9.53;6.27;;;;;;;2.21;100.00;-23877.75;5051776;28;20182;-70
2021/12/14 01:22:46;;;;;;;7.30;5.80;;;;;;;1.99;100.00;-23871.47;5003203;28;20603;-70
2021/12/14 01:25:17;;;;;;;7.43;5.80;;;;;;;2.27;100.00;-23879.31;5051689;28;20300;-70
2021/12/14 01:27:45;;;;;;;7.20;5.50;;;;;;;2.24;100.00;-23878.47;5050255;28;20232;-69
2021/12/14 01:30:34;;;;;;;6.70;5.40;;;;;;;2.37;100.00;-23882.16;5051705;28;20615;-71
2021/12/14 01:33:04;;;;;;;8.90;6.03;;;;;;;2.38;100.00;-23882.44;5051717;28;20198;-70
2021/12/14 01:35:34;;;;;;;8.20;5.80;;;;;;;1.95;100.00;-23870.16;5051223;28;20174;-71
2021/12/14 01:38:16;;;;;;;7.30;5.27;;;;;;;2.38;100.00;-23882.44;5051632;28;20217;-70
2021/12/14 01:40:54;;;;;;;6.87;5.17;;;;;;;2.06;100.00;-23873.31;5049839;28;20170;-70
2021/12/14 01:43:24;;;;;;;7.57;5.33;;;;;;;2.28;100.00;-23879.44;5051375;28;20703;-71
2021/12/14 01:45:51;;;;;;;7.33;5.30;;;;;;;2.22;100.00;-23878.03;5051629;28;20262;-70
2021/12/14 01:48:17;;;;;;;8.63;5.87;;;;;;;2.03;100.00;-23872.47;5050166;28;20691;-71
2021/12/14 01:50:49;;;;;;;7.17;5.07;;;;;;;1.92;100.00;-23869.31;5051063;28;20265;-70
2021/12/14 01:53:15;;;;;;;7.67;5.43;;;;;;;1.95;100.00;-23870.16;5051411;28;20197;-70
2021/12/14 01:55:44;;;;;;;7.23;5.63;;;;;;;2.12;100.00;-23875.03;5051345;28;20173;-70
2021/12/14 01:58:11;;;;;;;6.30;5.00;;;;;;;1.66;100.00;-23862.03;5051245;28;20181;-71
2021/12/14 02:00:39;;;;;;;6.07;4.53;;;;;;;1.96;100.00;-23870.59;5050265;28;20189;-71
2021/12/14 02:03:09;;;;;;;6.50;4.80;;;;;;;1.65;100.00;-23861.75;5051371;28;20189;-71
2021/12/14 02:05:40;;;;;;;6.30;4.60;;;;;;;2.10;100.00;-23874.47;5053483;28;20217;-70
2021/12/14 02:08:15;;;;;;;6.70;4.60;;;;;;;1.59;100.00;-23860.16;5053805;28;20567;-71
2021/12/14 02:10:41;;;;;;;6.87;4.60;;;;;;;1.88;100.00;-23868.16;5054923;28;20182;-70
2021/12/14 02:13:07;;;;;;;6.03;4.60;;;;;;;2.01;100.00;-23871.88;5054577;28;20176;-70
2021/12/14 02:15:42;;;;;;;5.03;4.07;;;;;;;1.79;100.00;-23865.75;5054717;28;20172;-69
2021/12/14 02:18:17;;;;;;;4.80;3.80;;;;;;;1.80;100.00;-23865.88;5054014;28;20241;-70
2021/12/14 02:20:46;;;;;;;6.40;4.47;;;;;;;0.77;100.00;-23837.00;5038144;28;20297;-71
2021/12/14 02:23:12;;;;;;;5.33;3.77;;;;;;;1.48;100.00;-23856.88;5054337;28;20205;-69
2021/12/14 02:25:38;;;;;;;5.27;4.10;;;;;;;1.50;100.00;-23857.59;5054490;28;20290;-69
2021/12/14 02:28:07;;;;;;;4.70;4.00;;;;;;;1.50;100.00;-23857.47;5053607;28;20202;-70
2021/12/14 02:30:34;;;;;;;5.00;3.90;;;;;;;1.50;100.00;-23857.47;5053362;28;20648;-70
2021/12/14 02:33:28;;;;;;;5.43;3.90;;;;;;;1.75;100.00;-23864.59;5054551;28;20233;-71
2021/12/14 02:35:54;;;;;;;5.43;4.03;;;;;;;1.59;100.00;-23860.03;5054808;28;20561;-70
2021/12/14 02:38:20;;;;;;;5.60;4.00;;;;;;;1.34;100.00;-23853.16;5055139;28;20196;-69
2021/12/14 02:40:53;;;;;;;6.13;4.40;;;;;;;1.92;100.00;-23869.31;5052931;28;20211;-71
2021/12/14 02:43:50;;;;;;;4.80;3.67;;;;;;;1.80;100.00;-23866.03;5054420;28;20710;-70
2021/12/14 02:46:20;;;;;;;5.77;4.07;;;;;;;1.91;100.00;-23869.16;5054150;28;20215;-70
2021/12/14 02:48:51;;;;;;;6.13;4.30;;;;;;;1.78;100.00;-23865.59;5052557;28;20201;-70
2021/12/14 02:51:24;;;;;;;5.40;3.93;;;;;;;1.62;100.00;-23860.88;5054939;28;20174;-69
2021/12/14 02:53:53;;;;;;;6.13;3.93;;;;;;;1.70;100.00;-23863.31;5052305;28;20245;-69
2021/12/14 02:56:23;;;;;;;4.20;3.47;;;;;;;1.74;100.00;-23864.47;5054062;28;20246;-71
2021/12/14 02:58:54;;;;;;;4.83;3.80;;;;;;;1.64;100.00;-23861.59;5053793;28;20193;-70
2021/12/14 03:01:20;;;;;;;4.70;3.73;;;;;;;1.70;100.00;-23863.31;5053887;28;20193;-69
2021/12/14 03:03:46;;;;;;;5.07;3.77;;;;;;;1.24;100.00;-23850.31;5053793;28;20190;-71
2021/12/14 03:06:18;;;;;;;4.90;3.60;;;;;;;1.86;100.00;-23867.75;5054098;28;20694;-71
2021/12/14 03:08:56;;;;;;;5.10;3.90;;;;;;;1.51;100.00;-23857.88;5053991;28;20198;-69
2021/12/14 03:11:22;;;;;;;4.83;3.60;;;;;;;1.54;100.00;-23858.59;5053634;28;20162;-70
2021/12/14 03:13:54;;;;;;;4.20;3.43;;;;;;;1.51;100.00;-23857.75;5053819;28;20267;-69
2021/12/14 03:16:24;;;;;;;5.50;3.77;;;;;;;1.29;100.00;-23851.59;5052940;28;20165;-69
2021/12/14 03:18:51;;;;;;;5.43;3.60;;;;;;;1.14;100.00;-23847.44;5053461;28;20168;-70
2021/12/14 03:21:24;;;;;;;4.90;3.87;;;;;;;1.16;100.00;-23848.03;5052220;28;20180;-70
2021/12/14 03:23:55;;;;;;;7.43;3.77;;;;;;;1.52;100.00;-23858.03;5053043;28;20233;-71
2021/12/14 03:26:26;;;;;;;4.23;3.37;;;;;;;1.31;100.00;-23852.31;5053679;28;20204;-70
2021/12/14 03:28:55;;;;;;;5.00;3.57;;;;;;;1.51;100.00;-23857.75;5052731;28;20210;-70
2021/12/14 03:31:34;;;;;;;4.77;3.93;;;;;;;1.18;100.00;-23848.59;5052941;28;20558;-70
2021/12/14 03:34:08;;;;;;;5.20;3.67;;;;;;;1.37;100.00;-23853.88;5053595;28;20179;-70
2021/12/14 03:36:38;;;;;;;5.47;4.10;;;;;;;1.45;100.00;-23856.16;5052629;28;20547;-69
2021/12/14 03:39:11;;;;;;;4.83;3.80;;;;;;;1.40;100.00;-23854.75;5052982;28;20173;-70
2021/12/14 03:41:43;;;;;;;5.33;3.60;;;;;;;1.44;100.00;-23855.88;5052579;28;20240;-70
2021/12/14 03:44:31;;;;;;;5.63;3.93;;;;;;;1.00;100.00;-23843.44;5052752;28;20489;-70
2021/12/14 03:46:59;;;;;;;7.60;3.70;;;;;;;1.53;100.00;-23858.44;5052581;28;20183;-70
2021/12/14 03:49:34;;;;;;;5.07;3.83;;;;;;;1.00;100.00;-23843.31;5052844;28;20457;-70
2021/12/14 03:52:00;;;;;;;4.60;3.33;;;;;;;1.25;100.00;-23850.59;5052593;28;20545;-69
2021/12/14 03:54:27;;;;;;;4.47;3.70;;;;;;;1.44;100.00;-23855.88;5052847;28;20167;-70
2021/12/14 03:56:54;;;;;;;4.20;3.20;;;;;;;1.10;100.00;-23846.16;5052904;28;20192;-70
2021/12/14 03:59:20;;;;;;;4.00;3.40;;;;;;;1.50;100.00;-23857.59;5052555;28;20174;-69
2021/12/14 04:01:48;;;;;;;4.50;3.47;;;;;;;1.38;100.00;-23854.03;5050029;28;20205;-69
2021/12/14 04:04:22;;;;;;;4.47;3.53;;;;;;;1.22;100.00;-23849.59;5052304;28;20196;-70
2021/12/14 04:06:50;;;;;;;4.53;3.60;;;;;;;1.42;100.00;-23855.16;5050718;28;20192;-70
2021/12/14 04:09:19;;;;;;;4.13;3.30;;;;;;;1.43;100.00;-23855.59;5052278;28;20241;-70
2021/12/14 04:11:45;;;;;;;4.43;3.40;;;;;;;1.43;100.00;-23855.59;5052712;28;20632;-69
2021/12/14 04:14:11;;;;;;;4.17;3.27;;;;;;;1.48;100.00;-23856.88;5052554;28;20288;-69
2021/12/14 04:16:40;;;;;;;4.57;3.40;;;;;;;1.45;100.00;-23856.03;5052924;28;20173;-69
2021/12/14 04:19:09;;;;;;;4.37;3.63;;;;;;;1.39;100.00;-23854.44;5052042;28;20579;-70
2021/12/14 04:21:38;;;;;;;4.17;3.43;;;;;;;1.47;100.00;-23856.59;5051411;28;20190;-69
2021/12/14 04:24:06;;;;;;;3.87;3.13;;;;;;;1.40;100.00;-23854.59;5052755;28;20236;-67
2021/12/14 04:26:32;;;;;;;4.80;3.23;;;;;;;1.55;100.00;-23858.88;5052986;28;20181;-69
2021/12/14 04:29:01;;;;;;;4.07;3.43;;;;;;;1.47;100.00;-23856.59;5052195;28;20303;-71
2021/12/14 04:31:26;;;;;;;3.73;3.20;;;;;;;1.24;100.00;-23850.16;5053585;28;20649;-70
2021/12/14 04:33:54;;;;;;;3.90;3.30;;;;;;;1.30;100.00;-23852.03;5054167;28;20178;-70
2021/12/14 04:36:25;;;;;;;4.00;3.60;;;;;;;1.11;100.00;-23846.59;5055900;28;20170;-69
2021/12/14 04:38:58;;;;;;;3.93;3.13;;;;;;;1.42;100.00;-23855.16;5053789;28;20201;-69
2021/12/14 04:52:28;;;;;;;3.63;3.17;;;;;;;1.39;100.00;-23854.44;5049662;28;20193;-69
2021/12/14 04:55:08;;;;;;;4.80;3.40;;;;;;;0.95;100.00;-23842.00;5045243;28;20180;-68
2021/12/14 04:57:43;;;;;;;4.27;2.83;;;;;;;1.50;100.00;-23857.47;5049414;28;20641;-70
2021/12/14 05:00:38;;;;;;;4.47;3.30;;;;;;;1.40;100.00;-23854.75;5049297;28;20177;-69
2021/12/14 05:03:13;;;;;;;3.53;3.10;;;;;;;1.26;100.00;-23850.72;5047372;28;20189;-68
2021/12/14 05:05:46;;;;;;;3.63;3.17;;;;;;;1.28;100.00;-23851.31;5050776;28;20185;-69
2021/12/14 05:11:14;;;;;;;3.63;3.07;;;;;;;1.23;100.00;-23850.03;5042936;28;20206;-69
2021/12/14 05:13:54;;;;;;;3.50;2.87;;;;;;;1.48;100.00;-23857.03;5082052;28;20640;-70
2021/12/14 05:16:25;;;;;;;4.13;3.20;;;;;;;1.20;100.00;-23849.03;5047983;28;20246;-69
2021/12/14 05:19:00;;;;;;;3.33;2.93;;;;;;;1.02;100.00;-23843.88;5047435;28;20180;-69
2021/12/14 05:21:33;;;;;;;3.77;3.00;;;;;;;1.53;100.00;-23858.31;5047282;28;20744;-69
2021/12/14 05:24:01;;;;;;;3.97;3.10;;;;;;;1.45;100.00;-23856.16;5048710;28;20251;-69
2021/12/14 05:26:26;;;;;;;4.17;3.13;;;;;;;1.04;100.00;-23844.44;5083402;28;20182;-74
2021/12/14 05:28:52;;;;;;;4.90;3.43;;;;;;;1.45;100.00;-23856.03;5050217;28;20259;-70
2021/12/14 05:31:18;;;;;;;4.27;3.30;;;;;;;1.47;100.00;-23856.59;5046249;28;20188;-70
2021/12/14 05:33:44;;;;;;;4.30;3.40;;;;;;;1.01;100.00;-23843.59;5049167;28;20258;-70
2021/12/14 05:36:15;;;;;;;6.07;4.00;;;;;;;1.45;100.00;-23856.16;5049575;28;20638;-70
2021/12/14 05:38:55;;;;;;;4.30;3.27;;;;;;;1.04;100.00;-23844.59;5050464;28;20178;-68
2021/12/14 05:44:10;;;;;;;4.57;3.40;;;;;;;1.45;100.00;-23856.03;5052938;28;20196;-68
2021/12/14 05:46:36;;;;;;;4.40;3.70;;;;;;;1.37;100.00;-23853.88;5053324;28;20197;-68
2021/12/14 05:49:06;;;;;;;4.43;3.80;;;;;;;0.98;100.00;-23842.88;5055123;28;20212;-68
2021/12/14 05:51:33;;;;;;;4.23;3.60;;;;;;;1.12;100.00;-23846.88;5055061;28;20175;-67
2021/12/14 05:53:59;;;;;;;4.70;3.50;;;;;;;1.41;100.00;-23855.03;5055194;28;20197;-72
2021/12/14 05:56:29;;;;;;;4.67;3.47;;;;;;;1.01;100.00;-23843.72;5054947;28;20192;-68
2021/12/14 05:58:55;;;;;;;5.17;3.73;;;;;;;1.45;100.00;-23856.03;5054635;28;20178;-69
2021/12/14 06:01:26;;;;;;;4.20;3.60;;;;;;;1.19;100.00;-23848.88;5054675;28;20261;-68
2021/12/14 06:03:57;;;;;;;6.77;3.73;;;;;;;1.26;100.00;-23850.88;5054850;28;20173;-69
2021/12/14 06:06:30;;;;;;;5.03;3.70;;;;;;;1.20;100.00;-23849.16;5053939;28;20204;-68
2021/12/14 06:09:06;;;;;;;4.93;4.00;;;;;;;0.75;100.00;-23836.44;5054446;28;20693;-68
2021/12/14 06:11:32;;;;;;;4.33;3.57;;;;;;;1.01;100.00;-23843.59;5054309;28;20597;-68
2021/12/14 06:13:58;;;;;;;5.50;3.93;;;;;;;1.50;100.00;-23857.59;5054200;28;20200;-69
2021/12/14 06:16:36;;;;;;;5.43;4.20;;;;;;;1.43;100.00;-23855.59;5054446;28;20673;-68
2021/12/14 06:19:24;;;;;;;5.90;4.23;;;;;;;1.04;100.00;-23844.59;5052762;28;20613;-69
2021/12/14 06:22:03;;;;;;;4.93;3.73;;;;;;;1.28;100.00;-23851.31;5054239;28;20177;-69
2021/12/14 06:24:32;;;;;;;4.73;3.67;;;;;;;0.61;100.00;-23832.28;5053964;28;20163;-69
2021/12/14 06:27:02;;;;;;;5.80;3.97;;;;;;;1.27;100.00;-23851.03;5053985;28;20184;-69
2021/12/14 06:29:35;;;;;;;4.80;3.70;;;;;;;1.08;100.00;-23845.59;5053805;28;20256;-69
2021/12/14 06:32:28;;;;;;;4.70;3.70;;;;;;;1.57;100.00;-23859.59;5053588;28;20197;-70
2021/12/14 06:34:59;;;;;;;4.70;3.97;;;;;;;1.57;100.00;-23859.47;5048814;28;20330;-70
2021/12/14 06:40:29;;;;;;;5.43;4.03;;;;;;;1.38;100.00;-23854.16;5053736;28;20189;-70
2021/12/14 06:43:04;;;;;;;5.40;4.10;;;;;;;1.55;100.00;-23859.03;5053702;28;20669;-69
2021/12/14 06:45:43;;;;;;;4.30;3.60;;;;;;;1.03;100.00;-23844.16;5053832;28;20173;-70
2021/12/14 06:48:16;;;;;;;4.17;3.40;;;;;;;1.35;100.00;-23853.31;5053725;28;20193;-68
2021/12/14 06:50:57;;;;;;;4.03;3.40;;;;;;;1.20;100.00;-23849.03;5051194;28;20607;-68
2021/12/14 06:53:24;;;;;;;6.70;4.10;;;;;;;1.13;100.00;-23847.03;5052353;28;20524;-68
2021/12/14 06:55:55;;;;;;;4.80;3.93;;;;;;;1.16;100.00;-23848.03;5053371;28;20182;-69
2021/12/14 06:58:25;;;;;;;4.50;3.60;;;;;;;1.21;100.00;-23849.31;5053540;28;20173;-68
2021/12/14 07:01:00;;;;;;;5.73;3.83;;;;;;;0.96;100.00;-23842.16;5053011;28;20193;-68
2021/12/14 07:03:49;;;;;;;6.27;4.60;;;;;;;1.27;100.00;-23851.16;5053119;28;20682;-69
2021/12/14 07:06:33;;;;;;;6.07;4.50;;;;;;;1.32;100.00;-23852.59;5033444;28;20179;-67
2021/12/14 07:09:12;;;;;;;6.43;4.50;;;;;;;0.94;100.00;-23841.72;5042973;28;20198;-68
2021/12/14 07:11:41;;;;;;;6.10;4.30;;;;;;;1.43;100.00;-23855.47;5052971;28;20165;-69
2021/12/14 07:14:24;;;;;;;5.30;4.23;;;;;;;1.05;100.00;-23844.72;5053016;28;20186;-69
2021/12/14 07:16:50;;;;;;;5.70;4.00;;;;;;;1.25;100.00;-23850.59;5051866;28;20177;-69
2021/12/14 07:19:15;;;;;;;6.43;4.40;;;;;;;1.00;100.00;-23843.31;5053226;28;20186;-69
2021/12/14 07:21:48;;;;;;;5.13;4.10;;;;;;;0.95;100.00;-23841.88;5052977;28;20180;-69
2021/12/14 07:24:22;;;;;;;6.00;4.30;;;;;;;1.23;100.00;-23849.88;5052961;28;20211;-69
2021/12/14 07:27:26;;;;;;;7.20;4.33;;;;;;;1.24;100.00;-23850.16;5051671;28;20232;-69
2021/12/14 07:29:54;;;;;;;6.97;4.57;;;;;;;1.31;100.00;-23852.31;5052999;28;20177;-69
2021/12/14 07:32:38;;;;;;;4.83;3.70;;;;;;;1.42;100.00;-23855.16;5053028;28;20178;-70
2021/12/14 07:35:14;;;;;;;5.03;3.90;;;;;;;1.32;100.00;-23852.44;5052771;28;20231;-69
2021/12/14 07:37:40;;;;;;;4.47;3.53;;;;;;;1.29;100.00;-23851.75;5053018;28;20265;-70
2021/12/14 07:40:06;;;;;;;4.93;3.57;;;;;;;1.40;100.00;-23854.75;5052676;28;20266;-68
2021/12/14 07:42:32;;;;;;;4.73;3.80;;;;;;;1.19;100.00;-23848.75;5052591;28;20218;-68
2021/12/14 07:44:58;;;;;;;5.40;4.13;;;;;;;1.25;100.00;-23850.44;5051125;28;20242;-69
2021/12/14 07:47:23;;;;;;;4.80;3.63;;;;;;;1.39;100.00;-23854.44;5052412;28;20197;-67
2021/12/14 07:49:54;;;;;;;4.63;3.87;;;;;;;1.52;100.00;-23858.03;5051672;28;20197;-68
2021/12/14 07:52:24;;;;;;;5.20;4.00;;;;;;;1.35;100.00;-23853.31;5052709;28;20310;-68
2021/12/14 07:54:58;;;;;;;4.97;3.80;;;;;;;1.01;100.00;-23843.72;5052326;28;20204;-69
2021/12/14 07:57:30;;;;;;;5.03;3.60;;;;;;;0.84;100.00;-23839.00;5051893;28;20544;-68
2021/12/14 07:59:58;;;;;;;4.67;3.87;;;;;;;1.21;100.00;-23849.44;5051702;28;20182;-68
2021/12/14 08:02:39;;;;;;;5.03;3.80;;;;;;;0.95;100.00;-23841.88;5050317;28;20173;-68
2021/12/14 08:05:25;;;;;;;6.20;4.50;;;;;;;0.93;100.00;-23841.44;5051775;28;20273;-68
2021/12/14 08:08:48;;;;;;;6.43;4.40;;;;;;;1.41;100.00;-23855.03;5051280;28;20244;-67
2021/12/14 08:14:10;;;;;;;6.03;3.87;;;;;;;1.42;100.00;-23855.31;5051736;28;20653;-70
2021/12/14 08:17:08;;;;;;;5.20;3.80;;;;;;;1.61;100.00;-23860.75;5051747;28;20649;-67
2021/12/14 08:19:38;;;;;;;7.23;4.40;;;;;;;1.67;100.00;-23862.31;5051495;28;20199;-67
2021/12/14 08:22:26;;;;;;;5.77;4.10;;;;;;;1.24;100.00;-23850.31;5051954;28;20175;-67
2021/12/14 08:24:52;;;;;;;8.43;4.77;;;;;;;1.64;100.00;-23861.59;5051834;28;20185;-68
2021/12/14 08:27:21;;;;;;;6.40;4.87;;;;;;;1.41;100.00;-23854.88;5051464;28;20541;-68
2021/12/14 08:29:52;;;;;;;6.47;4.80;;;;;;;1.78;100.00;-23865.59;5050355;28;20603;-68
2021/12/14 08:32:22;;;;;;;6.73;4.97;;;;;;;1.56;100.00;-23859.31;5052001;28;20186;-68
2021/12/14 08:34:49;;;;;;;7.03;4.97;;;;;;;1.72;100.00;-23863.88;5051275;28;20162;-68
2021/12/14 08:37:37;;;;;;;6.33;4.57;;;;;;;1.83;100.00;-23866.75;5051631;28;20253;-68
2021/12/14 08:40:11;;;;;;;6.83;4.80;;;;;;;1.74;100.00;-23864.47;5051478;28;20213;-68
2021/12/14 08:42:48;;;;;;;6.40;4.70;;;;;;;1.70;100.00;-23863.31;5050919;28;20306;-68
2021/12/14 08:45:27;;;;;;;5.83;4.63;;;;;;;1.48;100.00;-23856.88;5049466;28;20179;-68
2021/12/14 08:47:54;;;;;;;8.13;5.13;;;;;;;1.33;100.00;-23852.75;5051280;28;20221;-68
2021/12/14 08:50:20;;;;;;;6.83;4.83;;;;;;;1.87;100.00;-23867.88;5050938;28;20189;-68
2021/12/14 08:52:46;;;;;;;7.60;4.80;;;;;;;1.76;100.00;-23865.03;5051121;28;20634;-68
2021/12/14 08:55:15;;;;;;;7.00;5.00;;;;;;;1.80;100.00;-23866.03;5051022;28;20181;-71
2021/12/14 08:57:42;;;;;;;8.50;5.33;;;;;;;1.53;100.00;-23858.44;5050751;28;20170;-71
2021/12/14 09:00:40;;;;;;;8.17;5.97;;;;;;;1.86;100.00;-23867.75;5051182;28;20261;-71
2021/12/14 09:03:09;;;;;;;8.50;5.63;;;;;;;1.71;100.00;-23863.47;5051004;28;20235;-70
2021/12/14 09:05:44;;;;;;;9.37;5.90;;;;;;;1.42;100.00;-23855.31;5051356;28;20547;-71
2021/12/14 09:08:10;;;;;;;8.33;5.47;;;;;;;1.81;100.00;-23866.16;5049566;28;20205;-71
2021/12/14 09:10:38;;;;;;;9.93;6.00;;;;;;;1.54;100.00;-23858.75;5051217;28;20568;-72
2021/12/14 09:13:11;;;;;;;7.60;5.60;;;;;;;1.58;100.00;-23859.88;5050620;28;20673;-70
2021/12/14 09:15:46;;;;;;;8.20;5.73;;;;;;;1.70;100.00;-23863.16;5051329;28;20163;-70
2021/12/14 09:18:14;;;;;;;7.80;5.97;;;;;;;2.04;100.00;-23872.88;5050969;28;20225;-71
2021/12/14 09:20:55;;;;;;;7.27;5.30;;;;;;;1.59;100.00;-23860.16;5051062;28;20189;-71
2021/12/14 09:23:25;;;;;;;7.43;5.17;;;;;;;1.67;100.00;-23862.31;5051517;28;20648;-72
2021/12/14 09:25:52;;;;;;;9.90;6.70;;;;;;;1.62;100.00;-23860.88;5052879;28;20194;-71
2021/12/14 09:28:18;;;;;;;7.73;5.40;;;;;;;1.74;100.00;-23864.47;5050576;28;20198;-70
2021/12/14 09:30:56;;;;;;;6.73;5.07;;;;;;;1.77;100.00;-23865.16;5051237;28;20616;-71
2021/12/14 09:33:24;;;;;;;7.17;5.07;;;;;;;1.55;100.00;-23859.03;5051546;28;20235;-71
2021/12/14 09:35:50;;;;;;;6.53;4.80;;;;;;;1.65;100.00;-23861.88;5051079;28;20186;-71
2021/12/14 09:38:19;;;;;;;6.63;5.00;;;;;;;1.97;100.00;-23870.75;5051765;28;20189;-72
2021/12/14 09:40:49;;;;;;;9.87;4.93;;;;;;;1.84;100.00;-23867.03;5051703;28;20198;-71
2021/12/14 09:43:17;;;;;;;6.37;4.83;;;;;;;1.96;100.00;-23870.59;5050755;28;20222;-71
2021/12/14 09:45:47;;;;;;;6.77;4.57;;;;;;;1.62;100.00;-23860.88;5050612;28;20182;-70
2021/12/14 09:48:16;;;;;;;7.33;5.10;;;;;;;1.64;100.00;-23861.59;5051263;28;20226;-72
2021/12/14 09:50:44;;;;;;;7.10;4.83;;;;;;;1.99;100.00;-23871.31;5050585;28;20615;-71
2021/12/14 09:53:12;;;;;;;6.73;4.73;;;;;;;1.62;100.00;-23861.03;5050585;28;20368;-70
2021/12/14 09:55:41;;;;;;;5.90;4.87;;;;;;;1.68;100.00;-23862.75;5050705;28;20167;-70
2021/12/14 09:58:20;;;;;;;6.07;4.87;;;;;;;2.11;100.00;-23874.75;5050284;28;20201;-70
2021/12/14 10:00:54;;;;;;;6.73;4.70;;;;;;;2.08;100.00;-23873.88;5050772;28;20487;-70
2021/12/14 10:03:20;;;;;;;7.77;5.40;;;;;;;1.73;100.00;-23864.16;5050541;28;20215;-70
2021/12/14 10:06:02;;;;;;;6.10;4.80;;;;;;;2.01;100.00;-23872.03;5051032;28;20640;-70
2021/12/14 10:08:34;;;;;;;7.13;5.47;;;;;;;1.94;100.00;-23870.03;5050527;28;20368;-70
2021/12/14 10:11:06;;;;;;;7.67;5.20;;;;;;;2.12;100.00;-23875.03;5050626;28;20178;-70
2021/12/14 10:13:34;;;;;;;6.30;5.07;;;;;;;1.77;100.00;-23865.31;5050529;28;20179;-70
2021/12/14 10:16:03;;;;;;;6.57;4.90;;;;;;;1.86;100.00;-23867.59;5050474;28;20174;-70
2021/12/14 10:18:36;;;;;;;7.63;5.50;;;;;;;1.93;100.00;-23869.75;5049202;28;20202;-71
2021/12/14 10:21:07;;;;;;;8.27;5.27;;;;;;;2.05;100.00;-23873.03;5050112;28;20361;-70
2021/12/14 10:23:34;;;;;;;8.17;5.57;;;;;;;1.06;100.00;-23845.16;5050417;28;20167;-70
2021/12/14 10:26:04;;;;;;;7.63;5.57;;;;;;;1.97;100.00;-23870.75;5053973;28;20209;-71
2021/12/14 10:28:32;;;;;;;8.20;5.77;;;;;;;2.20;100.00;-23877.31;5052862;28;20199;-72
2021/12/14 10:31:07;;;;;;;8.27;5.93;;;;;;;2.13;100.00;-23875.47;5054102;28;20173;-70
2021/12/14 10:33:33;;;;;;;9.93;7.40;;;;;;;2.31;100.00;-23880.31;5055845;28;20560;-70
2021/12/14 10:36:06;;;;;;;10.90;7.30;;;;;;;2.34;100.00;-23881.16;5055377;28;20159;-70
2021/12/14 10:38:50;;;;;;;9.97;7.23;;;;;;;2.00;100.00;-23871.75;5052908;28;20167;-71
2021/12/14 10:44:04;;;;;;;12.47;6.67;;;;;;;2.01;100.00;-23871.88;5049171;28;20194;-69
2021/12/14 10:46:35;;;;;;;7.83;5.47;;;;;;;2.43;100.00;-23883.75;5045996;28;20669;-69
2021/12/14 10:49:01;;;;;;;9.90;6.17;;;;;;;2.42;100.00;-23883.59;5053695;28;20673;-70
2021/12/14 10:51:36;;;;;;;8.63;6.10;;;;;;;2.53;100.00;-23886.75;5054009;28;20195;-70
2021/12/14 10:54:04;;;;;;;7.63;5.60;;;;;;;2.44;100.00;-23884.16;5053627;28;20170;-70
2021/12/14 10:56:40;;;;;;;8.70;5.80;;;;;;;2.20;100.00;-23877.31;5053033;28;20186;-70
2021/12/14 10:59:07;;;;;;;7.67;5.33;;;;;;;2.58;100.00;-23888.16;5053612;28;20174;-70
2021/12/14 11:01:34;;;;;;;8.27;5.50;;;;;;;2.49;100.00;-23885.59;5053183;28;20166;-71
2021/12/14 11:04:13;;;;;;;7.73;5.70;;;;;;;2.34;100.00;-23881.31;5053145;28;20547;-69
2021/12/14 11:06:44;;;;;;;7.33;5.27;;;;;;;2.76;100.00;-23893.00;5053467;28;20246;-68
2021/12/14 11:12:07;;;;;;;7.53;5.33;;;;;;;2.52;100.00;-23886.44;5052530;28;20194;-67
2021/12/14 11:14:35;;;;;;;7.83;5.50;;;;;;;2.68;100.00;-23891.00;5051756;28;20213;-69
2021/12/14 11:20:15;;;;;;;7.70;5.23;;;;;;;2.72;100.00;-23891.88;5053245;28;20240;-71
2021/12/14 11:22:44;;;;;;;7.93;5.30;;;;;;;2.84;100.00;-23895.44;5051339;28;20178;-71
2021/12/14 11:25:21;;;;;;;6.70;4.70;;;;;;;2.82;100.00;-23894.72;5050952;28;20212;-71
2021/12/14 11:27:52;;;;;;;8.33;5.60;;;;;;;2.75;100.00;-23892.72;5049682;28;20194;-69
2021/12/14 11:30:42;;;;;;;7.40;5.50;;;;;;;2.82;100.00;-23894.72;5051913;28;20155;-70
2021/12/14 11:33:20;;;;;;;8.13;5.70;;;;;;;2.72;100.00;-23892.03;5052603;28;20178;-71
2021/12/14 11:35:54;;;;;;;7.03;5.30;;;;;;;2.59;100.00;-23888.44;5050425;28;20221;-71
2021/12/14 11:38:39;;;;;;;7.60;5.67;;;;;;;2.80;100.00;-23894.31;5052226;28;20198;-73
2021/12/14 11:41:25;;;;;;;6.80;5.07;;;;;;;2.72;100.00;-23892.03;5052750;28;20613;-71
2021/12/14 11:44:02;;;;;;;11.13;7.00;;;;;;;2.58;100.00;-23888.16;5051183;28;20223;-72
2021/12/14 11:46:31;;;;;;;6.97;5.23;;;;;;;2.27;100.00;-23879.31;5052184;28;20255;-72
2021/12/14 11:49:00;;;;;;;7.27;5.27;;;;;;;2.76;100.00;-23893.00;5052196;28;20377;-73
2021/12/14 11:51:29;;;;;;;8.03;5.57;;;;;;;2.83;100.00;-23895.00;5052192;28;20194;-72
2021/12/14 11:53:56;;;;;;;7.40;5.50;;;;;;;2.85;100.00;-23895.59;5052645;28;20175;-72
2021/12/14 11:56:25;;;;;;;6.60;5.10;;;;;;;2.48;100.00;-23885.31;5050478;28;20178;-72
2021/12/14 11:58:56;;;;;;;8.53;6.03;;;;;;;2.71;100.00;-23891.59;5052278;28;20733;-71
2021/12/14 12:01:29;;;;;;;7.47;5.67;;;;;;;2.56;100.00;-23887.59;5052406;28;20177;-71
2021/12/14 12:04:12;;;;;;;9.73;6.00;;;;;;;2.98;100.00;-23899.28;5050608;28;20183;-72
2021/12/14 12:09:46;;;;;;;7.77;5.63;;;;;;;2.80;100.00;-23894.31;5051747;28;20293;-71
2021/12/14 12:12:24;;;;;;;6.87;5.53;;;;;;;2.93;100.00;-23898.00;5052048;28;20195;-72
2021/12/14 12:15:10;;;;;;;7.40;5.63;;;;;;;3.06;100.00;-23901.56;5052178;28;20181;-73
2021/12/14 12:17:47;;;;;;;7.60;5.90;;;;;;;2.95;100.00;-23898.44;5052397;28;20182;-72
2021/12/14 12:20:41;;;;;;;7.57;5.60;;;;;;;2.96;100.00;-23898.72;5052198;28;20182;-72
2021/12/14 12:23:08;;;;;;;8.17;6.33;;;;;;;3.03;100.00;-23900.88;5050986;28;20720;-71
2021/12/14 12:25:58;;;;;;;8.93;6.07;;;;;;;2.74;100.00;-23892.44;5050430;28;20566;-71
2021/12/14 12:28:26;;;;;;;8.07;5.97;;;;;;;3.00;100.00;-23899.88;5051668;28;20248;-73